Time;durP1;ratioP1;P1;durP2;ratioP2;P2;SDS_P1;SDS_P2;PMS_P1;PMS_P2;Temp;Humidity;BMP_temperature;BMP_pressure;BME280_temperature;BME280_humidity;BME280_pressure;Samples;Min_cycle;Max_cycle;Signal;HPM_P1;HPM_P2
2024/03/01 00:00:15;;;;;;;13.38;7.53;;;6.70;1.00;;;;;;5054421;28;20463;-59
2024/03/01 00:02:42;;;;;;;13.30;8.15;;;6.70;1.00;;;;;;5051075;28;20461;-59
2024/03/01 00:05:09;;;;;;;12.33;7.47;;;6.70;1.00;;;;;;5055248;28;20535;-59
2024/03/01 00:07:37;;;;;;;15.45;7.50;;;6.70;1.00;;;;;;5059528;28;20502;-60
2024/03/01 00:10:04;;;;;;;14.70;7.10;;;6.70;1.00;;;;;;5060746;28;20421;-59
2024/03/01 00:12:31;;;;;;;13.00;6.77;;;6.60;1.00;;;;;;5061199;28;20490;-59
2024/03/01 00:14:58;;;;;;;16.10;7.30;;;6.60;1.00;;;;;;5061382;28;20448;-59
2024/03/01 00:17:25;;;;;;;13.98;7.00;;;6.60;1.00;;;;;;5061030;28;20452;-59
2024/03/01 00:19:53;;;;;;;13.80;6.97;;;6.60;1.00;;;;;;5061865;28;20519;-60
2024/03/01 00:22:22;;;;;;;18.08;8.60;;;6.70;1.00;;;;;;5061783;28;20511;-59
2024/03/01 00:24:50;;;;;;;13.50;6.70;;;6.70;1.00;;;;;;5061374;28;20417;-59
2024/03/01 00:27:18;;;;;;;16.00;7.85;;;6.60;1.00;;;;;;5060026;28;20495;-60
2024/03/01 00:29:45;;;;;;;10.18;6.32;;;6.70;1.00;;;;;;5060531;28;20522;-59
2024/03/01 00:32:12;;;;;;;12.73;7.22;;;6.70;1.00;;;;;;5060601;28;20467;-60
2024/03/01 00:34:39;;;;;;;15.32;8.05;;;6.70;1.00;;;;;;5060190;28;20768;-59
2024/03/01 00:37:05;;;;;;;15.27;7.20;;;6.80;1.00;;;;;;5060146;28;20771;-59
2024/03/01 00:39:32;;;;;;;14.98;7.47;;;6.80;1.00;;;;;;5060341;28;20878;-60
2024/03/01 00:42:01;;;;;;;15.77;8.70;;;6.80;1.00;;;;;;5060963;28;20496;-60
2024/03/01 00:44:27;;;;;;;15.83;7.40;;;6.80;1.00;;;;;;5062023;28;20499;-59
2024/03/01 00:46:56;;;;;;;17.08;8.65;;;6.70;1.00;;;;;;5060911;28;20602;-60
2024/03/01 00:49:23;;;;;;;18.80;9.80;;;6.70;1.00;;;;;;5059196;28;20428;-60
2024/03/01 00:51:50;;;;;;;15.10;8.18;;;6.60;1.00;;;;;;5061642;28;20866;-59
2024/03/01 00:54:17;;;;;;;13.90;7.70;;;6.60;1.00;;;;;;5061785;28;20870;-59
2024/03/01 00:56:53;;;;;;;15.30;8.30;;;6.70;1.00;;;;;;5060933;28;20432;-60
2024/03/01 00:59:23;;;;;;;15.97;9.00;;;6.60;1.00;;;;;;5061646;28;20428;-60
2024/03/01 01:01:49;;;;;;;12.20;6.95;;;6.70;1.00;;;;;;5062102;28;20437;-59
2024/03/01 01:04:16;;;;;;;12.67;6.17;;;6.70;1.00;;;;;;5061943;28;20703;-59
2024/03/01 01:06:43;;;;;;;15.10;7.82;;;6.60;1.00;;;;;;5060997;28;20594;-59
2024/03/01 01:09:11;;;;;;;14.82;7.20;;;6.60;1.00;;;;;;5060488;28;20756;-60
2024/03/01 01:11:38;;;;;;;12.98;7.65;;;6.60;1.00;;;;;;5059921;28;20543;-59
2024/03/01 01:14:05;;;;;;;17.50;9.00;;;6.50;1.00;;;;;;5059847;28;20453;-60
2024/03/01 01:16:33;;;;;;;17.75;7.88;;;6.40;1.00;;;;;;5061239;28;20437;-59
2024/03/01 01:19:01;;;;;;;14.93;8.30;;;6.40;1.00;;;;;;5057954;28;20425;-59
2024/03/01 01:21:29;;;;;;;17.02;8.50;;;6.40;3.60;;;;;;5058448;28;20425;-58
2024/03/01 01:23:56;;;;;;;16.15;8.70;;;6.50;5.40;;;;;;5058219;28;20421;-58
2024/03/01 01:26:23;;;;;;;13.50;7.38;;;6.60;1.00;;;;;;5055839;28;20441;-59
2024/03/01 01:28:51;;;;;;;15.18;7.20;;;6.60;1.00;;;;;;5054269;28;20448;-60
2024/03/01 01:31:19;;;;;;;16.00;7.43;;;6.60;1.00;;;;;;5057375;28;20425;-60
2024/03/01 01:33:48;;;;;;;16.80;8.93;;;6.70;1.00;;;;;;5058135;28;20428;-59
2024/03/01 01:36:15;;;;;;;18.65;8.57;;;6.70;1.00;;;;;;5057753;28;20421;-59
2024/03/01 01:38:42;;;;;;;13.63;8.60;;;6.70;1.00;;;;;;5055483;28;20444;-60
2024/03/01 01:41:09;;;;;;;16.98;8.40;;;6.70;1.00;;;;;;5058145;28;20425;-60
2024/03/01 01:43:37;;;;;;;18.73;9.48;;;6.70;1.00;;;;;;5058106;28;20429;-60
2024/03/01 01:46:05;;;;;;;19.57;10.07;;;6.70;1.00;;;;;;5055007;28;20711;-60
2024/03/01 01:48:32;;;;;;;16.77;7.20;;;6.70;1.00;;;;;;5057705;28;20417;-60
2024/03/01 01:51:02;;;;;;;16.92;8.70;;;6.60;1.00;;;;;;5057511;28;20413;-60
2024/03/01 01:53:29;;;;;;;16.20;9.35;;;6.70;1.00;;;;;;5057756;28;20846;-60
2024/03/01 01:55:56;;;;;;;16.73;9.52;;;6.70;1.00;;;;;;5057282;28;20429;-59
2024/03/01 01:58:24;;;;;;;18.50;8.63;;;6.60;1.00;;;;;;5054185;28;20444;-59
2024/03/01 02:00:52;;;;;;;18.00;8.80;;;6.60;1.00;;;;;;5057627;28;20808;-59
2024/03/01 02:03:20;;;;;;;20.20;9.47;;;6.60;1.00;;;;;;5057413;28;20413;-59
2024/03/01 02:05:48;;;;;;;16.17;8.68;;;6.70;1.00;;;;;;5059730;28;20448;-59
2024/03/01 02:08:16;;;;;;;14.68;8.45;;;6.70;1.00;;;;;;5057645;28;20433;-59
2024/03/01 02:10:45;;;;;;;14.65;8.20;;;6.80;1.00;;;;;;5054851;28;20495;-59
2024/03/01 02:13:18;;;;;;;15.57;8.27;;;6.90;1.00;;;;;;5056898;28;20429;-59
2024/03/01 02:15:45;;;;;;;16.77;8.82;;;6.90;1.00;;;;;;5054666;28;20417;-60
2024/03/01 02:18:13;;;;;;;16.38;8.27;;;7.00;1.00;;;;;;5057511;28;20680;-60
2024/03/01 02:21:00;;;;;;;14.25;7.75;;;7.00;1.00;;;;;;5056904;28;20711;-59
2024/03/01 02:23:29;;;;;;;14.32;7.45;;;6.90;1.00;;;;;;5054098;28;20429;-59
2024/03/01 02:25:56;;;;;;;15.38;8.27;;;6.90;1.00;;;;;;5056529;28;20495;-61
2024/03/01 02:28:25;;;;;;;14.15;8.23;;;6.90;1.00;;;;;;5056866;28;20461;-59
2024/03/01 02:30:52;;;;;;;15.20;9.13;;;6.90;1.00;;;;;;5054905;28;20429;-59
2024/03/01 02:33:19;;;;;;;15.70;8.40;;;6.90;1.00;;;;;;5056207;28;20846;-61
2024/03/01 02:35:46;;;;;;;11.30;7.55;;;6.90;1.00;;;;;;5056375;28;20525;-59
2024/03/01 02:38:15;;;;;;;16.70;8.93;;;6.80;1.00;;;;;;5056509;28;20519;-59
2024/03/01 02:40:44;;;;;;;15.40;7.80;;;6.80;1.00;;;;;;5056070;28;20551;-60
2024/03/01 02:43:11;;;;;;;13.63;7.95;;;6.80;1.00;;;;;;5056561;28;20452;-60
2024/03/01 02:45:38;;;;;;;16.70;9.43;;;6.80;1.00;;;;;;5056457;28;20606;-60
2024/03/01 02:48:05;;;;;;;14.73;8.40;;;6.80;1.00;;;;;;5053809;28;20727;-59
2024/03/01 02:50:32;;;;;;;14.15;7.80;;;6.80;1.00;;;;;;5056905;28;20826;-60
2024/03/01 02:52:59;;;;;;;17.63;7.60;;;6.80;1.00;;;;;;5056406;28;20472;-60
2024/03/01 02:55:26;;;;;;;15.60;8.52;;;6.80;1.00;;;;;;5056900;28;20503;-59
2024/03/01 02:57:56;;;;;;;14.10;8.15;;;6.80;1.00;;;;;;5055908;28;20425;-60
2024/03/01 03:00:24;;;;;;;16.75;8.73;;;6.80;1.00;;;;;;5051912;28;20512;-60
2024/03/01 03:02:52;;;;;;;15.32;8.50;;;6.80;1.00;;;;;;5053368;28;20433;-59
2024/03/01 03:05:19;;;;;;;13.35;7.40;;;6.80;1.00;;;;;;5055657;28;20715;-59
2024/03/01 03:07:47;;;;;;;15.25;8.43;;;6.90;1.00;;;;;;5056538;28;20469;-59
2024/03/01 03:10:14;;;;;;;14.77;8.15;;;6.90;1.00;;;;;;5056210;28;20887;-59
2024/03/01 03:12:43;;;;;;;16.17;8.73;;;7.00;1.00;;;;;;5055820;28;20417;-59
2024/03/01 03:15:11;;;;;;;17.03;8.53;;;7.00;1.00;;;;;;5055907;28;20421;-58
2024/03/01 03:17:39;;;;;;;14.73;9.00;;;7.00;1.00;;;;;;5056345;28;20432;-59
2024/03/01 03:20:10;;;;;;;17.10;8.33;;;7.10;1.00;;;;;;5055997;28;20479;-60
2024/03/01 03:22:39;;;;;;;16.83;7.85;;;7.10;1.00;;;;;;5056047;28;20727;-59
2024/03/01 03:25:08;;;;;;;15.00;7.53;;;7.10;1.00;;;;;;5053129;28;20424;-59
2024/03/01 03:27:36;;;;;;;17.33;9.23;;;7.10;1.00;;;;;;5055753;28;20693;-58
2024/03/01 03:30:06;;;;;;;14.63;7.78;;;7.00;1.00;;;;;;5055566;28;20423;-59
2024/03/01 03:32:34;;;;;;;15.45;7.90;;;6.90;1.00;;;;;;5054921;28;20428;-59
2024/03/01 03:35:01;;;;;;;14.90;8.40;;;7.00;1.00;;;;;;5054678;28;20520;-59
2024/03/01 03:37:28;;;;;;;19.15;9.13;;;6.90;1.00;;;;;;5053917;28;20453;-59
2024/03/01 03:39:55;;;;;;;15.38;7.38;;;7.00;1.00;;;;;;5054242;28;20429;-59
2024/03/01 03:42:22;;;;;;;15.73;8.10;;;7.00;1.00;;;;;;5053649;28;20515;-59
2024/03/01 03:44:49;;;;;;;13.68;7.63;;;7.00;1.00;;;;;;5053631;28;20524;-59
2024/03/01 03:47:16;;;;;;;16.10;8.37;;;7.00;1.00;;;;;;5054046;28;20479;-59
2024/03/01 03:49:47;;;;;;;13.77;7.00;;;6.90;1.00;;;;;;5055155;28;20515;-60
2024/03/01 03:52:14;;;;;;;18.57;8.67;;;6.90;1.00;;;;;;5054735;28;20515;-59
2024/03/01 03:54:41;;;;;;;17.20;8.98;;;7.00;1.00;;;;;;5054403;28;20467;-59
2024/03/01 03:57:07;;;;;;;17.25;8.73;;;7.00;1.00;;;;;;5054148;28;20727;-59
2024/03/01 03:59:34;;;;;;;14.57;8.10;;;6.90;1.00;;;;;;5054184;28;20780;-59
2024/03/01 04:02:01;;;;;;;14.45;8.90;;;6.90;1.00;;;;;;5054095;28;20747;-58
2024/03/01 04:04:30;;;;;;;14.50;8.23;;;6.90;1.00;;;;;;5053978;28;20499;-59
2024/03/01 04:06:59;;;;;;;16.60;9.02;;;6.80;1.00;;;;;;5054201;28;20441;-59
2024/03/01 04:09:29;;;;;;;16.85;9.25;;;6.70;5.80;;;;;;5047879;28;20456;-60
2024/03/01 04:11:57;;;;;;;17.65;8.77;;;6.70;5.90;;;;;;5055672;28;20413;-62
2024/03/01 04:14:24;;;;;;;18.23;8.40;;;6.70;8.10;;;;;;5054023;28;20429;-59
2024/03/01 04:16:51;;;;;;;15.70;8.88;;;6.80;4.60;;;;;;5053960;28;20445;-59
2024/03/01 04:19:17;;;;;;;16.38;8.82;;;6.70;4.30;;;;;;5052774;28;20448;-59
2024/03/01 04:21:48;;;;;;;16.13;7.75;;;6.70;3.00;;;;;;5052409;28;20515;-59
2024/03/01 04:24:21;;;;;;;19.23;9.25;;;6.80;1.00;;;;;;5051673;28;20465;-60
2024/03/01 04:26:49;;;;;;;18.95;9.23;;;6.80;1.00;;;;;;5054964;28;20473;-59
2024/03/01 04:29:16;;;;;;;15.48;8.85;;;6.70;1.00;;;;;;5052015;28;20842;-59
2024/03/01 04:31:48;;;;;;;16.07;8.47;;;6.70;3.60;;;;;;5054605;28;20762;-59
2024/03/01 04:34:15;;;;;;;13.85;7.40;;;6.70;1.00;;;;;;5054845;28;20436;-62
2024/03/01 04:36:42;;;;;;;18.00;8.48;;;6.70;1.00;;;;;;5055003;28;20495;-59
2024/03/01 04:39:09;;;;;;;14.95;8.13;;;6.60;6.70;;;;;;5054281;28;20500;-59
2024/03/01 04:41:38;;;;;;;17.55;9.68;;;6.60;16.20;;;;;;5052375;28;20425;-59
2024/03/01 04:44:05;;;;;;;15.95;7.28;;;6.60;9.10;;;;;;5054302;28;20494;-59
2024/03/01 04:46:32;;;;;;;15.27;7.63;;;6.60;11.90;;;;;;5053772;28;20449;-60
2024/03/01 04:48:59;;;;;;;19.05;9.13;;;6.60;16.40;;;;;;5053846;28;20508;-59
2024/03/01 04:51:28;;;;;;;17.02;9.23;;;6.60;15.90;;;;;;5053506;28;20433;-59
2024/03/01 04:53:55;;;;;;;15.93;8.55;;;6.60;12.70;;;;;;5055949;28;20520;-59
2024/03/01 04:56:22;;;;;;;15.77;8.57;;;6.50;14.90;;;;;;5057824;28;20490;-60
2024/03/01 04:58:50;;;;;;;17.55;8.68;;;6.50;15.60;;;;;;5058492;28;20460;-59
2024/03/01 05:01:17;;;;;;;17.70;7.28;;;6.50;16.30;;;;;;5055570;28;20967;-60
2024/03/01 05:03:44;;;;;;;16.27;7.68;;;6.50;17.20;;;;;;5058338;28;20504;-60
2024/03/01 05:06:12;;;;;;;17.73;9.07;;;6.50;31.50;;;;;;5058515;28;20536;-59
2024/03/01 05:08:39;;;;;;;16.00;8.32;;;6.50;34.50;;;;;;5058645;28;20503;-59
2024/03/01 05:11:06;;;;;;;16.85;8.38;;;6.50;25.80;;;;;;5056869;28;20536;-59
2024/03/01 05:13:33;;;;;;;13.18;7.70;;;6.60;24.10;;;;;;5055933;28;20469;-59
2024/03/01 05:16:01;;;;;;;14.27;7.60;;;6.60;17.10;;;;;;5057951;28;20508;-59
2024/03/01 05:18:28;;;;;;;15.13;8.52;;;6.60;10.80;;;;;;5056093;28;20433;-59
2024/03/01 05:20:56;;;;;;;15.60;8.13;;;6.60;11.90;;;;;;5055286;28;20725;-59
2024/03/01 05:23:23;;;;;;;19.33;9.30;;;6.60;10.70;;;;;;5058237;28;20456;-59
2024/03/01 05:25:51;;;;;;;16.10;8.60;;;6.60;16.40;;;;;;5058482;28;20468;-58
2024/03/01 05:28:18;;;;;;;15.60;7.47;;;6.60;11.70;;;;;;5058278;28;20786;-59
2024/03/01 05:30:46;;;;;;;15.77;8.02;;;6.70;15.70;;;;;;5057415;28;20739;-59
2024/03/01 05:33:14;;;;;;;16.23;8.57;;;6.70;16.30;;;;;;5056168;28;20437;-59
2024/03/01 05:35:41;;;;;;;16.90;7.75;;;6.70;19.20;;;;;;5056422;28;20508;-59
2024/03/01 05:38:08;;;;;;;15.60;8.57;;;6.70;13.20;;;;;;5056742;28;20765;-59
2024/03/01 05:40:37;;;;;;;16.00;8.70;;;6.70;12.30;;;;;;5056744;28;20878;-59
2024/03/01 05:43:05;;;;;;;16.77;8.50;;;6.60;16.60;;;;;;5056537;28;20433;-59
2024/03/01 05:45:31;;;;;;;16.48;8.70;;;6.70;15.80;;;;;;5053202;28;20429;-59
2024/03/01 05:47:58;;;;;;;16.95;8.27;;;6.70;17.10;;;;;;5055832;28;20508;-58
2024/03/01 05:50:26;;;;;;;12.55;7.07;;;6.70;22.30;;;;;;5057200;28;20435;-58
2024/03/01 05:52:54;;;;;;;17.98;9.32;;;6.90;29.80;;;;;;5057346;28;20524;-58
2024/03/01 05:55:24;;;;;;;13.80;8.30;;;7.00;9.70;;;;;;5057439;28;20433;-58
2024/03/01 05:57:51;;;;;;;16.90;7.87;;;7.00;10.40;;;;;;5050427;28;20562;-58
2024/03/01 06:00:19;;;;;;;17.88;8.40;;;7.00;15.70;;;;;;5040638;28;20460;-60
2024/03/01 06:02:47;;;;;;;14.95;8.65;;;7.00;19.00;;;;;;5042673;28;21074;-58
2024/03/01 06:05:14;;;;;;;16.38;8.57;;;6.90;31.10;;;;;;5044152;28;20955;-58
2024/03/01 06:07:44;;;;;;;19.15;9.38;;;6.90;35.80;;;;;;5039511;28;20933;-60
2024/03/01 06:10:14;;;;;;;15.02;8.43;;;6.80;46.50;;;;;;5040151;28;20423;-59
2024/03/01 06:12:41;;;;;;;17.88;9.05;;;6.90;45.10;;;;;;5045727;28;20778;-59
2024/03/01 06:15:08;;;;;;;16.25;7.65;;;6.90;41.10;;;;;;5045840;28;20523;-59
2024/03/01 06:17:36;;;;;;;18.30;8.70;;;6.90;44.50;;;;;;5046360;28;20831;-59
2024/03/01 06:20:05;;;;;;;14.52;8.07;;;6.80;46.00;;;;;;5044960;28;20517;-59
2024/03/01 06:22:32;;;;;;;16.80;7.80;;;6.80;51.30;;;;;;5043989;28;20531;-59
2024/03/01 06:25:03;;;;;;;17.35;8.93;;;6.80;58.90;;;;;;5046151;28;20919;-59
2024/03/01 06:27:30;;;;;;;15.07;9.37;;;6.80;64.30;;;;;;5047649;28;20437;-59
2024/03/01 06:29:57;;;;;;;17.20;8.25;;;6.80;69.80;;;;;;5044466;28;20897;-59
2024/03/01 06:32:24;;;;;;;18.07;9.47;;;6.80;71.90;;;;;;5038160;28;20792;-60
2024/03/01 06:34:52;;;;;;;16.60;8.57;;;6.80;81.10;;;;;;5044332;28;20508;-58
2024/03/01 06:37:19;;;;;;;14.50;8.80;;;6.80;66.60;;;;;;5046617;28;20429;-58
2024/03/01 06:39:46;;;;;;;16.17;9.10;;;6.80;71.90;;;;;;5045454;28;20428;-59
2024/03/01 06:42:14;;;;;;;14.27;9.30;;;6.80;79.50;;;;;;5043642;28;20491;-59
2024/03/01 06:44:41;;;;;;;19.80;10.40;;;6.80;79.40;;;;;;5024945;28;20525;-59
2024/03/01 06:47:08;;;;;;;16.85;7.85;;;6.90;68.00;;;;;;5043012;28;20422;-59
2024/03/01 06:49:35;;;;;;;16.65;8.70;;;6.80;64.90;;;;;;5045098;28;20429;-59
2024/03/01 06:52:02;;;;;;;16.70;8.20;;;6.80;60.30;;;;;;5047215;28;20911;-60
2024/03/01 06:54:29;;;;;;;17.93;8.97;;;6.80;58.60;;;;;;5048785;28;20469;-59
2024/03/01 06:56:56;;;;;;;18.93;9.63;;;6.90;62.40;;;;;;5045419;28;20460;-60
2024/03/01 06:59:27;;;;;;;14.63;8.50;;;6.90;71.60;;;;;;5047376;28;20436;-59
2024/03/01 07:01:56;;;;;;;14.88;9.00;;;6.90;61.40;;;;;;5047467;28;20913;-59
2024/03/01 07:04:25;;;;;;;20.07;9.67;;;6.90;64.50;;;;;;5046528;28;20425;-60
2024/03/01 07:06:52;;;;;;;18.55;9.52;;;7.00;59.40;;;;;;5045389;28;20694;-59
2024/03/01 07:09:20;;;;;;;17.03;8.93;;;7.00;55.50;;;;;;5037287;28;20557;-60
2024/03/01 07:11:47;;;;;;;18.93;10.50;;;7.00;52.00;;;;;;5032324;28;20439;-60
2024/03/01 07:14:14;;;;;;;15.17;7.73;;;7.10;55.10;;;;;;5036796;28;20857;-59
2024/03/01 07:16:42;;;;;;;15.98;8.52;;;7.10;51.60;;;;;;5031616;28;20680;-60
2024/03/01 07:19:09;;;;;;;15.40;8.38;;;7.20;47.70;;;;;;5034845;28;20891;-60
2024/03/01 07:21:37;;;;;;;13.20;7.63;;;7.20;31.50;;;;;;5042465;28;20457;-59
2024/03/01 07:24:07;;;;;;;15.25;7.82;;;7.30;34.60;;;;;;5033320;28;20488;-59
2024/03/01 07:26:34;;;;;;;13.68;8.43;;;7.40;35.40;;;;;;5033728;28;20433;-59
2024/03/01 07:29:02;;;;;;;16.25;7.80;;;7.40;18.40;;;;;;5041565;28;20471;-59
2024/03/01 07:31:34;;;;;;;15.73;8.10;;;7.50;17.50;;;;;;5035259;28;20475;-59
2024/03/01 07:34:05;;;;;;;13.48;6.97;;;7.60;8.20;;;;;;5028872;28;20538;-59
2024/03/01 07:36:32;;;;;;;12.27;6.18;;;7.60;1.00;;;;;;5026252;28;20433;-60
2024/03/01 07:39:00;;;;;;;11.93;7.47;;;7.80;1.00;;;;;;5039965;28;20695;-62
2024/03/01 07:41:28;;;;;;;15.57;8.68;;;7.80;1.00;;;;;;5038529;28;20524;-61
2024/03/01 07:43:55;;;;;;;11.07;7.18;;;7.90;1.00;;;;;;5041846;28;20535;-59
2024/03/01 07:46:23;;;;;;;16.20;7.82;;;8.00;1.00;;;;;;5034565;28;20440;-59
2024/03/01 07:48:50;;;;;;;12.88;7.28;;;8.00;1.00;;;;;;5032703;28;20538;-59
2024/03/01 07:51:18;;;;;;;15.30;6.95;;;8.00;1.00;;;;;;5030623;28;20892;-59
2024/03/01 07:53:46;;;;;;;13.18;7.95;;;8.10;1.00;;;;;;5031428;28;20572;-60
2024/03/01 07:56:15;;;;;;;9.32;4.90;;;8.10;1.00;;;;;;5033106;28;20435;-60
2024/03/01 07:58:44;;;;;;;17.70;7.88;;;8.30;1.00;;;;;;5053280;28;20476;-59
2024/03/01 08:01:11;;;;;;;10.15;6.45;;;8.40;1.00;;;;;;5047981;28;20485;-60
2024/03/01 08:03:37;;;;;;;14.73;7.63;;;8.50;1.00;;;;;;5054832;28;20424;-59
2024/03/01 08:06:04;;;;;;;10.07;5.90;;;8.60;1.00;;;;;;5053263;28;20507;-59
2024/03/01 08:08:44;;;;;;;14.80;7.00;;;8.70;1.00;;;;;;5048139;28;20535;-59
2024/03/01 08:11:12;;;;;;;11.43;5.20;;;8.70;1.00;;;;;;5052695;28;20526;-59
2024/03/01 08:13:39;;;;;;;11.55;6.07;;;8.80;1.00;;;;;;5058795;28;20818;-59
2024/03/01 08:16:10;;;;;;;12.60;6.28;;;8.90;1.00;;;;;;5045770;28;20441;-59
2024/03/01 08:18:39;;;;;;;13.55;6.63;;;9.00;1.00;;;;;;5050118;28;20922;-57
2024/03/01 08:21:06;;;;;;;12.30;6.70;;;9.20;1.00;;;;;;5049440;28;20463;-57
2024/03/01 08:23:38;;;;;;;13.07;5.68;;;9.30;99.90;;;;;;5044764;28;20537;-58
2024/03/01 08:26:13;;;;;;;9.07;4.03;;;9.40;99.90;;;;;;5048932;28;20436;-57
2024/03/01 08:28:42;;;;;;;9.98;5.22;;;9.40;1.00;;;;;;5054890;28;20494;-55
2024/03/01 08:31:24;;;;;;;9.80;5.13;;;9.40;1.00;;;;;;5058337;28;20420;-56
2024/03/01 08:33:59;;;;;;;10.97;5.23;;;9.40;99.90;;;;;;5052532;28;20436;-56
2024/03/01 08:36:26;;;;;;;9.95;5.15;;;9.50;99.90;;;;;;5056387;28;20531;-55
2024/03/01 08:39:17;;;;;;;10.02;4.78;;;9.60;99.90;;;;;;5057062;28;20432;-58
2024/03/01 08:41:45;;;;;;;8.55;4.13;;;9.50;1.00;;;;;;5055460;28;20447;-58
2024/03/01 08:44:42;;;;;;;7.65;3.83;;;9.50;1.00;;;;;;5056118;28;20425;-58
2024/03/01 08:47:34;;;;;;;8.63;4.60;;;9.60;1.00;;;;;;5056199;28;20530;-58
2024/03/01 08:50:41;;;;;;;9.10;4.30;;;9.60;99.90;;;;;;5048490;28;21021;-57
2024/03/01 08:53:47;;;;;;;6.72;3.40;;;9.60;99.90;;;;;;5054602;28;20433;-57
2024/03/01 08:56:17;;;;;;;5.30;3.00;;;9.70;1.00;;;;;;5028659;28;20441;-59
2024/03/01 08:58:45;;;;;;;7.07;2.80;;;9.70;1.00;;;;;;5057191;28;20456;-58
2024/03/01 09:01:41;;;;;;;5.30;2.20;;;9.80;99.90;;;;;;5056795;28;20425;-56
2024/03/01 09:04:13;;;;;;;5.53;2.65;;;9.90;1.00;;;;;;5057782;28;20441;-58
2024/03/01 09:06:41;;;;;;;5.63;2.13;;;10.00;1.00;;;;;;5060976;28;20430;-58
2024/03/01 09:09:19;;;;;;;4.20;1.50;;;10.00;99.90;;;;;;5065005;28;20831;-58
2024/03/01 09:11:50;;;;;;;4.47;2.10;;;9.90;26.00;;;;;;5062181;28;20425;-58
2024/03/01 09:14:27;;;;;;;3.75;1.90;;;9.90;21.00;;;;;;5062727;28;20427;-58
2024/03/01 09:16:55;;;;;;;4.00;2.10;;;9.80;19.30;;;;;;5060440;28;21046;-58
2024/03/01 09:19:24;;;;;;;4.45;1.60;;;9.80;1.00;;;;;;5063997;28;20575;-57
2024/03/01 09:21:51;;;;;;;5.00;1.80;;;9.70;88.80;;;;;;5063009;28;20439;-59
2024/03/01 09:24:19;;;;;;;3.47;1.60;;;9.80;99.90;;;;;;5061121;28;20862;-59
2024/03/01 09:26:50;;;;;;;5.90;1.30;;;9.80;1.00;;;;;;5061000;28;20436;-56
2024/03/01 09:29:34;;;;;;;3.70;1.70;;;9.70;1.00;;;;;;5064814;28;20822;-58
2024/03/01 09:32:06;;;;;;;3.13;1.70;;;9.70;1.00;;;;;;5066393;28;20423;-59
2024/03/01 09:34:40;;;;;;;4.30;1.50;;;9.70;99.90;;;;;;5064557;28;20423;-58
2024/03/01 09:37:12;;;;;;;3.72;1.42;;;9.70;1.00;;;;;;5040819;28;20734;-56
2024/03/01 09:39:42;;;;;;;2.90;1.10;;;9.60;1.00;;;;;;5007563;28;20444;-58
2024/03/01 09:42:36;;;;;;;4.05;1.50;;;9.50;99.90;;;;;;5021296;28;20455;-57
2024/03/01 09:45:17;;;;;;;2.78;1.30;;;9.50;99.90;;;;;;5056056;28;20441;-58
2024/03/01 09:48:02;;;;;;;4.38;1.30;;;9.40;1.00;;;;;;5062740;28;20424;-59
2024/03/01 09:50:48;;;;;;;3.42;1.25;;;9.40;82.80;;;;;;5055837;28;20422;-59
2024/03/01 09:53:25;;;;;;;3.92;1.40;;;9.50;99.90;;;;;;5056088;28;20417;-58
2024/03/01 09:56:07;;;;;;;3.20;1.13;;;9.50;1.00;;;;;;5058249;28;20453;-58
2024/03/01 09:58:46;;;;;;;3.00;1.30;;;9.50;1.00;;;;;;5062301;28;20603;-58
2024/03/01 10:01:18;;;;;;;3.03;1.10;;;9.50;1.00;;;;;;5063527;28;20444;-59
2024/03/01 10:03:55;;;;;;;3.53;1.40;;;9.50;1.00;;;;;;5063627;28;20777;-57
2024/03/01 10:06:42;;;;;;;3.15;1.15;;;9.50;1.00;;;;;;5053035;28;20417;-58
2024/03/01 10:09:20;;;;;;;3.67;1.20;;;9.40;1.00;;;;;;5053728;28;20440;-59
2024/03/01 10:11:58;;;;;;;5.28;1.30;;;9.40;1.00;;;;;;5052462;28;20792;-59
2024/03/01 10:14:40;;;;;;;4.18;1.33;;;9.50;1.00;;;;;;5070085;28;20420;-59
2024/03/01 10:17:15;;;;;;;2.40;1.10;;;9.50;1.00;;;;;;5057682;28;20459;-59
2024/03/01 10:20:00;;;;;;;2.33;1.13;;;9.50;1.00;;;;;;5056541;28;20425;-62
2024/03/01 10:22:38;;;;;;;3.22;1.10;;;9.50;1.00;;;;;;5053013;28;20890;-58
2024/03/01 10:25:19;;;;;;;1.63;0.93;;;9.40;1.00;;;;;;5052496;28;20804;-58
2024/03/01 10:27:52;;;;;;;1.98;1.08;;;9.40;1.00;;;;;;5051948;28;20510;-59
2024/03/01 10:30:24;;;;;;;2.88;0.90;;;9.40;1.00;;;;;;5049513;28;20804;-59
2024/03/01 10:33:08;;;;;;;4.00;1.00;;;9.50;1.00;;;;;;5047440;28;20445;-59
2024/03/01 10:35:45;;;;;;;2.50;1.00;;;9.60;1.00;;;;;;5054267;28;20787;-59
2024/03/01 10:38:22;;;;;;;2.70;1.00;;;9.70;1.00;;;;;;5054140;28;20831;-58
2024/03/01 10:40:59;;;;;;;2.17;1.00;;;9.80;1.00;;;;;;5050367;28;20878;-58
2024/03/01 10:43:38;;;;;;;1.90;0.90;;;9.90;1.00;;;;;;5051766;28;20855;-59
2024/03/01 10:46:24;;;;;;;2.17;1.10;;;10.00;1.00;;;;;;5051493;28;20523;-60
2024/03/01 10:48:59;;;;;;;2.17;1.00;;;10.00;1.00;;;;;;5055967;28;20528;-60
2024/03/01 10:51:32;;;;;;;3.22;1.30;;;10.10;1.00;;;;;;5056269;28;20475;-61
2024/03/01 10:54:03;;;;;;;2.30;1.10;;;10.10;1.00;;;;;;5050667;28;20571;-59
2024/03/01 10:56:33;;;;;;;3.25;1.30;;;10.10;1.00;;;;;;5061473;28;20433;-59
2024/03/01 10:59:05;;;;;;;3.80;1.13;;;10.00;1.00;;;;;;5056405;28;20903;-59
2024/03/01 11:01:46;;;;;;;4.15;1.25;;;10.00;1.00;;;;;;5055777;28;20521;-59
2024/03/01 11:04:22;;;;;;;3.70;1.40;;;9.90;1.00;;;;;;5057919;28;20693;-59
2024/03/01 11:07:02;;;;;;;2.50;1.30;;;9.80;6.50;;;;;;5038487;28;20534;-60
2024/03/01 11:09:36;;;;;;;3.05;1.30;;;9.80;14.20;;;;;;5054712;28;20929;-59
2024/03/01 11:12:13;;;;;;;3.78;1.33;;;9.90;15.70;;;;;;5053617;28;20436;-59
2024/03/01 11:14:47;;;;;;;4.03;1.60;;;10.10;10.40;;;;;;5053864;28;20875;-59
2024/03/01 11:17:18;;;;;;;2.20;1.20;;;10.10;1.00;;;;;;5053224;28;20436;-59
2024/03/01 11:19:49;;;;;;;3.25;1.50;;;10.30;1.00;;;;;;5064247;28;20703;-58
2024/03/01 11:22:24;;;;;;;3.20;1.40;;;10.40;1.00;;;;;;5069037;28;20854;-58
2024/03/01 11:25:00;;;;;;;3.40;1.20;;;10.40;1.00;;;;;;5050368;28;20441;-59
2024/03/01 11:27:30;;;;;;;2.70;1.20;;;10.50;1.00;;;;;;5055929;28;20570;-58
2024/03/01 11:30:05;;;;;;;2.10;1.20;;;10.70;1.00;;;;;;5055741;28;20437;-59
2024/03/01 11:32:43;;;;;;;2.00;1.30;;;10.70;1.00;;;;;;5056771;28;20499;-59
2024/03/01 11:35:17;;;;;;;2.87;1.13;;;10.70;1.00;;;;;;5051936;28;20498;-59
2024/03/01 11:37:57;;;;;;;1.83;1.00;;;10.70;1.00;;;;;;5054659;28;20468;-59
2024/03/01 11:40:37;;;;;;;2.20;1.00;;;10.90;1.00;;;;;;5056018;28;20450;-58
2024/03/01 11:43:22;;;;;;;4.30;1.10;;;11.20;1.00;;;;;;5063853;28;20835;-59
2024/03/01 11:46:10;;;;;;;3.40;1.60;;;11.40;1.00;;;;;;5052593;28;20880;-59
2024/03/01 11:48:48;;;;;;;2.80;1.20;;;11.40;1.00;;;;;;5051546;28;20425;-58
2024/03/01 11:51:28;;;;;;;2.77;1.10;;;11.50;1.00;;;;;;5052708;28;20536;-58
2024/03/01 11:54:15;;;;;;;2.75;1.10;;;11.50;1.00;;;;;;5053607;28;20847;-59
2024/03/01 11:57:04;;;;;;;1.75;1.10;;;11.50;99.90;;;;;;5049406;28;20867;-59
2024/03/01 11:59:57;;;;;;;4.13;1.20;;;11.70;99.90;;;;;;5055898;28;20516;-59
2024/03/01 12:02:36;;;;;;;3.22;1.05;;;11.60;99.90;;;;;;5050874;28;20445;-60
2024/03/01 12:05:18;;;;;;;2.45;1.00;;;11.50;99.90;;;;;;5047750;28;20865;-60
2024/03/01 12:08:01;;;;;;;2.70;0.90;;;11.60;99.90;;;;;;5053176;28;20441;-59
2024/03/01 12:10:44;;;;;;;2.00;0.80;;;11.70;99.90;;;;;;5054145;28;20497;-59
2024/03/01 12:13:16;;;;;;;2.40;0.90;;;11.70;99.90;;;;;;5045242;28;20906;-59
2024/03/01 12:15:54;;;;;;;2.20;1.10;;;11.90;1.00;;;;;;5054146;28;20457;-59
2024/03/01 12:18:31;;;;;;;2.20;0.90;;;12.10;1.00;;;;;;5050508;28;20511;-59
2024/03/01 12:21:12;;;;;;;1.60;0.90;;;12.20;1.00;;;;;;5052927;28;20429;-59
2024/03/01 12:23:51;;;;;;;2.53;1.07;;;12.50;99.90;;;;;;5054751;28;20763;-59
2024/03/01 12:26:31;;;;;;;1.50;0.90;;;12.30;63.30;;;;;;5053031;28;20435;-60
2024/03/01 12:29:10;;;;;;;1.70;1.00;;;12.30;1.00;;;;;;5051477;28;20910;-60
2024/03/01 12:32:00;;;;;;;2.85;1.00;;;12.30;99.90;;;;;;5048814;28;20429;-61
2024/03/01 12:34:41;;;;;;;1.80;0.90;;;12.30;99.90;;;;;;5043592;28;20475;-61
2024/03/01 12:37:24;;;;;;;1.73;1.00;;;12.20;1.00;;;;;;5048340;28;20751;-62
2024/03/01 12:40:05;;;;;;;2.15;0.80;;;12.20;94.50;;;;;;5051671;28;20421;-61
2024/03/01 12:42:38;;;;;;;1.80;0.90;;;12.30;25.90;;;;;;5053058;28;20513;-62
2024/03/01 12:45:14;;;;;;;1.77;0.90;;;12.30;1.00;;;;;;5061428;28;20437;-62
2024/03/01 12:48:03;;;;;;;2.13;1.02;;;12.30;1.00;;;;;;5051787;28;20596;-62
2024/03/01 12:50:41;;;;;;;1.30;0.80;;;12.30;15.80;;;;;;5034375;28;20908;-60
2024/03/01 12:53:33;;;;;;;1.50;0.85;;;12.40;1.00;;;;;;5073830;28;20495;-62
2024/03/01 12:56:16;;;;;;;1.52;0.80;;;12.40;58.90;;;;;;5064607;28;20501;-61
2024/03/01 12:59:00;;;;;;;2.30;0.80;;;12.30;1.00;;;;;;5049373;28;20444;-62
2024/03/01 13:01:31;;;;;;;1.50;0.80;;;12.20;1.00;;;;;;5050746;28;20559;-61
2024/03/01 13:04:09;;;;;;;1.65;0.90;;;12.00;1.00;;;;;;5050563;28;20427;-61
2024/03/01 13:06:36;;;;;;;3.53;1.60;;;11.90;53.10;;;;;;5050587;28;20433;-61
2024/03/01 13:09:14;;;;;;;6.13;2.60;;;12.00;1.00;;;;;;5053513;28;20452;-61
2024/03/01 13:11:43;;;;;;;6.77;2.80;;;11.90;1.00;;;;;;5051737;28;20520;-62
2024/03/01 13:14:20;;;;;;;7.07;3.83;;;11.90;1.00;;;;;;5052570;28;20899;-61
2024/03/01 13:16:52;;;;;;;7.40;4.13;;;11.90;1.00;;;;;;5055026;28;20421;-62